Time;durP1;ratioP1;P1;durP2;ratioP2;P2;SDS_P1;SDS_P2;PMS_P1;PMS_P2;Temp;Humidity;BMP_temperature;BMP_pressure;BME280_temperature;BME280_humidity;BME280_pressure;Samples;Min_cycle;Max_cycle;Signal;HPM_P1;HPM_P2
2022/01/12 00:00:50;;;;;;;;;35.00;31.50;;;;;0.63;83.50;100511.03;5087832;28;8978;-78
2022/01/12 00:03:19;;;;;;;;;37.75;33.75;;;;;0.86;83.37;100513.97;5051375;28;8856;-79
2022/01/12 00:05:48;;;;;;;;;45.25;30.00;;;;;1.08;82.74;100513.44;5087676;28;8861;-78
2022/01/12 00:08:17;;;;;;;;;29.00;29.00;;;;;1.07;81.93;100519.34;5087283;28;8863;-78
2022/01/12 00:10:47;;;;;;;;;36.25;32.00;;;;;0.90;82.64;100519.31;5070601;28;8972;-79
2022/01/12 00:13:16;;;;;;;;;31.00;27.25;;;;;0.83;82.51;100517.22;5088864;28;8860;-77
2022/01/12 00:15:45;;;;;;;;;38.25;31.50;;;;;0.47;84.14;100528.94;5087223;28;8859;-78
2022/01/12 00:18:14;;;;;;;;;39.75;34.50;;;;;0.38;84.76;100534.44;5104479;28;8873;-78
2022/01/12 00:20:43;;;;;;;;;30.25;26.25;;;;;0.65;84.99;100522.25;5030772;28;8858;-77
2022/01/12 00:23:12;;;;;;;;;31.00;28.50;;;;;0.85;83.31;100531.06;5070628;28;8913;-79
2022/01/12 00:25:58;;;;;;;;;35.25;33.75;;;;;0.64;84.22;100543.56;5069615;28;8962;-80
2022/01/12 00:34:07;;;;;;;;;29.25;24.00;;;;;0.68;82.74;100548.09;5049868;28;8864;-78
2022/01/12 00:36:37;;;;;;;;;37.75;36.00;;;;;0.22;85.20;100553.19;4996837;28;8846;-78
2022/01/12 00:39:08;;;;;;;;;41.50;37.25;;;;;-0.44;89.56;100557.91;5027987;28;9013;-77
2022/01/12 00:41:38;;;;;;;;;40.75;33.50;;;;;-0.32;89.43;100559.44;5032433;28;8836;-78
2022/01/12 00:44:10;;;;;;;;;29.75;26.50;;;;;-0.29;89.16;100562.19;5032670;28;8863;-75
2022/01/12 00:46:40;;;;;;;;;35.50;34.75;;;;;-0.56;92.04;100564.00;5049423;28;8852;-78
2022/01/12 00:49:09;;;;;;;;;41.00;38.25;;;;;-0.51;90.76;100566.06;5047675;28;8940;-77
2022/01/12 00:51:39;;;;;;;;;48.50;40.75;;;;;-0.69;93.04;100578.63;5048905;28;8991;-77
2022/01/12 00:54:08;;;;;;;;;42.00;39.00;;;;;-0.63;93.48;100568.75;4984369;28;8872;-76
2022/01/12 00:56:37;;;;;;;;;44.25;34.00;;;;;-0.74;94.12;100569.75;5032097;28;8954;-76
2022/01/12 00:59:06;;;;;;;;;43.25;42.00;;;;;-0.73;94.06;100576.66;5057337;28;8984;-77
2022/01/12 01:01:36;;;;;;;;;45.25;39.25;;;;;-0.81;94.50;100581.31;5073144;28;8869;-76
2022/01/12 01:04:05;;;;;;;;;41.00;38.00;;;;;-1.01;96.39;100580.06;5082383;28;8843;-77
2022/01/12 01:06:36;;;;;;;;;41.25;36.75;;;;;-0.92;96.63;100582.34;5090262;28;8962;-79
2022/01/12 01:09:07;;;;;;;;;54.00;44.75;;;;;-0.74;95.40;100574.88;5036142;28;12881;-77
2022/01/12 01:11:36;;;;;;;;;43.50;37.25;;;;;-0.87;96.47;100580.03;5074830;28;8852;-78
2022/01/12 01:14:15;;;;;;;;;43.00;30.50;;;;;-0.71;96.03;100581.88;5090615;28;9597;-78
2022/01/12 01:17:04;;;;;;;;;36.50;34.25;;;;;-0.22;93.92;100577.16;5029062;28;8851;-77
2022/01/12 01:27:47;;;;;;;;;34.50;30.75;;;;;0.71;86.63;100578.19;5085671;28;8850;-77
2022/01/12 01:30:16;;;;;;;;;32.00;30.00;;;;;0.71;85.87;100571.34;5088544;28;9346;-77
2022/01/12 01:32:49;;;;;;;;;35.50;32.50;;;;;0.82;85.42;100574.53;5089901;28;8885;-76
2022/01/12 01:35:19;;;;;;;;;34.25;26.50;;;;;0.88;84.67;100572.28;5074495;28;8863;-77
2022/01/12 01:37:47;;;;;;;;;30.00;27.50;;;;;1.02;84.07;100579.84;5072615;28;8857;-77
2022/01/12 01:40:16;;;;;;;;;31.25;29.75;;;;;1.08;83.37;100573.38;5025038;28;8850;-77
2022/01/12 01:43:06;;;;;;;;;43.25;36.25;;;;;1.19;82.18;100578.19;5090372;28;8849;-76
2022/01/12 01:53:59;;;;;;;;;30.25;24.25;;;;;1.26;80.83;100586.31;5088322;28;8988;-78
2022/01/12 01:56:28;;;;;;;;;30.00;25.50;;;;;0.88;81.81;100591.94;5071394;28;8958;-77
2022/01/12 01:58:57;;;;;;;;;35.25;28.75;;;;;0.96;82.29;100585.53;5083641;28;8859;-78
2022/01/12 02:01:29;;;;;;;;;31.50;26.25;;;;;1.03;81.55;100587.66;5065279;28;9660;-78
2022/01/12 02:04:04;;;;;;;;;29.75;29.00;;;;;1.02;81.64;100582.44;5090436;28;8847;-78
2022/01/12 02:06:37;;;;;;;;;33.25;28.00;;;;;1.09;81.44;100592.25;5075027;28;8863;-76
2022/01/12 02:09:10;;;;;;;;;33.75;33.50;;;;;0.94;81.58;100594.84;5059379;28;8861;-76
2022/01/12 02:12:00;;;;;;;;;37.50;32.00;;;;;1.16;81.21;100592.66;5091629;28;9106;-78
2022/01/12 02:14:48;;;;;;;;;12.50;8.00;;;;;1.29;80.21;100586.50;5089747;28;8861;-77
2022/01/12 02:17:22;;;;;;;;;31.00;29.00;;;;;1.44;79.84;100583.84;5022769;28;8855;-76
2022/01/12 02:20:08;;;;;;;;;32.00;28.25;;;;;1.43;79.19;100587.22;5072897;28;8894;-77
2022/01/12 02:36:56;;;;;;;;;24.25;22.25;;;;;-1.36;88.94;100618.81;5031403;28;8870;-77
2022/01/12 02:39:51;;;;;;;;;29.50;26.50;;;;;-1.52;90.49;100616.91;5031425;28;8835;-77
2022/01/12 02:42:20;;;;;;;;;30.00;25.25;;;;;-1.75;91.25;100623.09;5031071;28;8951;-78
2022/01/12 02:50:57;;;;;;;;;34.50;27.50;;;;;-2.30;91.89;100632.16;5030847;28;8850;-77
2022/01/12 02:53:40;;;;;;;;;21.25;20.00;;;;;-2.47;91.73;100633.56;5028203;28;8868;-75
2022/01/12 02:56:14;;;;;;;;;23.00;18.75;;;;;-2.53;91.61;100638.22;5041393;28;8886;-77
2022/01/12 02:58:45;;;;;;;;;20.00;19.00;;;;;-2.29;90.53;100641.59;5014249;28;8875;-76
2022/01/12 03:04:09;;;;;;;;;23.00;21.50;;;;;-2.42;90.46;100648.44;5018476;28;8866;-77
2022/01/12 03:06:41;;;;;;;;;20.25;16.25;;;;;-2.61;90.56;100656.47;5048542;28;8994;-76
2022/01/12 03:09:12;;;;;;;;;24.00;21.25;;;;;-2.65;90.80;100658.69;5088327;28;8865;-75
2022/01/12 03:11:43;;;;;;;;;21.00;18.50;;;;;-2.69;90.35;100659.25;5088214;28;8842;-77
2022/01/12 03:14:14;;;;;;;;;17.25;17.25;;;;;-2.61;89.66;100663.22;5071515;28;8877;-76
2022/01/12 03:16:44;;;;;;;;;19.25;16.50;;;;;-2.79;89.24;100670.50;5053688;28;8865;-77
2022/01/12 03:19:19;;;;;;;;;12.50;12.00;;;;;-2.85;89.72;100667.53;5049792;28;8853;-75
2022/01/12 03:21:48;;;;;;;;;18.50;14.00;;;;;-2.99;88.56;100684.38;5033399;28;8853;-82
2022/01/12 03:24:18;;;;;;;;;10.00;10.00;;;;;-2.96;88.83;100684.59;5050066;28;8971;-76
2022/01/12 03:26:50;;;;;;;;;20.00;19.25;;;;;-2.99;88.36;100689.47;5065851;28;8933;-76
2022/01/12 03:29:20;;;;;;;;;17.80;15.80;;;;;-2.95;88.39;100689.81;5066656;28;8836;-75
2022/01/12 03:31:49;;;;;;;;;14.00;13.00;;;;;-2.68;87.09;100691.69;5050022;28;8875;-79
2022/01/12 03:34:25;;;;;;;;;17.50;13.00;;;;;-2.76;87.08;100691.09;5049844;28;8876;-78
2022/01/12 03:37:16;;;;;;;;;19.50;16.00;;;;;-2.78;86.06;100687.56;5050091;28;8906;-76
2022/01/12 03:39:44;;;;;;;;;18.00;14.75;;;;;-2.83;85.19;100694.91;5049999;28;8917;-77
2022/01/12 03:42:19;;;;;;;;;16.25;14.25;;;;;-2.66;84.72;100693.56;5049388;28;8869;-75
2022/01/12 03:44:47;;;;;;;;;17.00;15.00;;;;;-2.68;84.48;100691.69;5049724;28;8857;-77
2022/01/12 03:47:17;;;;;;;;;15.00;14.50;;;;;-2.68;83.16;100690.00;5049558;28;9645;-78
2022/01/12 03:49:46;;;;;;;;;14.50;13.00;;;;;-2.73;81.81;100695.56;5053837;28;9575;-76
2022/01/12 03:52:15;;;;;;;;;17.50;13.50;;;;;-2.76;81.79;100694.56;5070721;28;8883;-76
2022/01/12 03:54:44;;;;;;;;;12.75;12.00;;;;;-2.53;82.08;100692.75;5088158;28;8852;-76
2022/01/12 03:57:13;;;;;;;;;15.50;15.50;;;;;-3.02;83.58;100692.72;5070695;28;8851;-77
2022/01/12 03:59:43;;;;;;;;;17.00;14.00;;;;;-3.14;85.29;100695.25;5087789;28;8891;-76
2022/01/12 04:02:13;;;;;;;;;18.75;18.25;;;;;-3.05;84.73;100702.69;5049337;28;8849;-79
2022/01/12 04:05:06;;;;;;;;;15.50;13.50;;;;;-2.92;84.80;100699.34;5032690;28;8866;-78
2022/01/12 04:10:20;;;;;;;;;12.00;12.00;;;;;-3.06;84.91;100716.22;5032893;28;8848;-76
2022/01/12 04:12:55;;;;;;;;;15.25;13.00;;;;;-3.04;86.12;100706.16;5049149;28;8911;-78
2022/01/12 04:15:26;;;;;;;;;15.25;14.00;;;;;-3.13;85.66;100712.34;5049144;28;8857;-78
2022/01/12 04:17:55;;;;;;;;;21.25;18.75;;;;;-3.13;86.18;100716.56;5031793;28;8875;-75
2022/01/12 04:20:24;;;;;;;;;16.25;14.75;;;;;-3.10;86.50;100718.44;5065805;28;8849;-80
2022/01/12 04:25:38;;;;;;;;;18.25;15.25;;;;;-3.24;85.75;100714.88;5049038;28;8873;-76
2022/01/12 04:28:08;;;;;;;;;18.25;12.25;;;;;-3.23;85.74;100722.66;5048896;28;8842;-75
2022/01/12 04:30:38;;;;;;;;;18.50;12.50;;;;;-3.18;85.80;100722.97;5048802;28;8826;-79
2022/01/12 04:33:07;;;;;;;;;18.00;18.00;;;;;-3.03;85.89;100723.22;5044697;28;8884;-76
2022/01/12 04:35:36;;;;;;;;;12.00;12.00;;;;;-3.27;83.63;100735.97;5070383;28;8889;-79
2022/01/12 04:38:05;;;;;;;;;13.75;13.75;;;;;-3.33;84.34;100730.38;5069912;28;8850;-76
2022/01/12 04:40:33;;;;;;;;;11.00;11.00;;;;;-3.47;84.71;100737.03;5067050;28;8863;-77
2022/01/12 04:43:03;;;;;;;;;11.50;9.50;;;;;-3.49;84.05;100753.00;5024426;28;8910;-77
2022/01/12 04:45:41;;;;;;;;;15.50;12.50;;;;;-3.57;82.87;100752.41;5068482;28;8994;-77
2022/01/12 04:48:33;;;;;;;;;17.50;16.50;;;;;-3.59;83.48;100765.03;5050387;28;8850;-77
2022/01/12 04:51:03;;;;;;;;;14.50;14.00;;;;;-3.51;82.43;100772.38;5036263;28;8983;-78
2022/01/12 04:53:32;;;;;;;;;13.00;10.00;;;;;-3.66;82.72;100770.44;5070298;28;8869;-78
2022/01/12 04:56:03;;;;;;;;;17.75;15.00;;;;;-3.64;83.14;100766.34;5070297;28;9017;-77
2022/01/12 04:58:32;;;;;;;;;14.00;14.00;;;;;-3.67;82.95;100767.78;5086453;28;8855;-79
2022/01/12 05:01:07;;;;;;;;;12.00;10.00;;;;;-3.69;82.04;100766.75;5069744;28;8856;-78
2022/01/12 05:06:43;;;;;;;;;15.75;15.00;;;;;-3.50;80.71;100774.16;5069885;28;9683;-79
2022/01/12 05:09:29;;;;;;;;;13.50;12.50;;;;;-3.62;80.15;100777.53;5080059;28;8939;-78
2022/01/12 05:14:55;;;;;;;;;12.00;9.00;;;;;-3.68;79.93;100777.09;5069981;28;8901;-79
2022/01/12 05:17:24;;;;;;;;;18.50;14.00;;;;;-3.75;80.65;100791.00;5069404;28;8841;-77
2022/01/12 05:19:54;;;;;;;;;13.50;12.00;;;;;-3.70;81.28;100791.38;5069550;28;8861;-80
2022/01/12 05:22:23;;;;;;;;;16.50;14.75;;;;;-3.79;81.89;100795.75;5069924;28;8861;-79
2022/01/12 05:24:53;;;;;;;;;19.25;12.75;;;;;-3.66;80.86;100798.47;5086559;28;8845;-79
2022/01/12 05:27:28;;;;;;;;;10.00;10.00;;;;;-3.76;80.46;100804.53;5086188;28;8858;-78
2022/01/12 05:29:58;;;;;;;;;10.75;8.50;;;;;-3.87;80.07;100802.81;5069864;28;8834;-77
2022/01/12 05:32:27;;;;;;;;;12.00;9.50;;;;;-3.84;80.74;100812.34;5043677;28;8978;-78
2022/01/12 05:35:03;;;;;;;;;15.00;13.00;;;;;-3.86;80.37;100809.69;5011766;28;8836;-78
2022/01/12 05:37:33;;;;;;;;;17.00;12.25;;;;;-3.96;81.10;100814.84;4996396;28;8978;-78
2022/01/12 05:40:02;;;;;;;;;18.25;16.75;;;;;-4.00;80.38;100818.81;4988857;28;8891;-78
2022/01/12 05:42:34;;;;;;;;;15.50;12.50;;;;;-4.07;79.62;100814.00;4975922;28;8863;-78
2022/01/12 05:45:09;;;;;;;;;15.25;14.25;;;;;-4.01;80.13;100819.56;4992351;28;8994;-78
2022/01/12 05:49:33;;;;;;;;;19.25;18.00;;;;;-3.96;79.65;100828.47;4992647;28;8922;-79
2022/01/12 05:50:41;;;;;;;;;18.00;15.50;;;;;-3.98;78.83;100829.13;4988843;28;8879;-78
2022/01/12 05:53:15;;;;;;;;;15.00;12.75;;;;;-4.21;78.88;100834.97;4972512;28;8875;-78
2022/01/12 05:55:46;;;;;;;;;16.25;16.25;;;;;-4.22;78.53;100843.34;4953261;28;8988;-79
2022/01/12 05:58:15;;;;;;;;;14.75;12.75;;;;;-4.23;77.89;100839.94;4949305;28;8892;-76
2022/01/12 06:00:44;;;;;;;;;14.50;12.25;;;;;-4.27;78.17;100843.00;4962115;28;8886;-77
2022/01/12 06:03:13;;;;;;;;;16.50;12.50;;;;;-4.23;79.30;100849.25;4975428;28;8862;-77
2022/01/12 06:05:44;;;;;;;;;10.50;9.25;;;;;-4.03;78.43;100851.69;4972066;28;8912;-78
2022/01/12 06:08:12;;;;;;;;;11.00;11.00;;;;;-3.95;77.69;100853.19;4988315;28;8834;-79
2022/01/12 06:10:42;;;;;;;;;14.00;9.25;;;;;-4.06;79.05;100858.19;4980764;28;8870;-78
2022/01/12 06:13:11;;;;;;;;;19.50;19.50;;;;;-3.98;78.93;100863.13;5014587;28;8906;-78
2022/01/12 06:15:39;;;;;;;;;21.50;15.50;;;;;-4.14;79.03;100868.69;4963672;28;8900;-77
2022/01/12 06:18:09;;;;;;;;;10.50;9.25;;;;;-4.18;79.63;100875.94;5007782;28;8858;-77
2022/01/12 06:20:37;;;;;;;;;15.00;14.00;;;;;-4.14;80.69;100870.31;5008038;28;8850;-78
2022/01/12 06:23:14;;;;;;;;;17.25;16.50;;;;;-4.05;80.38;100878.69;4992904;28;8889;-79
2022/01/12 06:25:51;;;;;;;;;15.25;13.25;;;;;-4.15;79.78;100878.75;5007944;28;8874;-78
2022/01/12 06:28:36;;;;;;;;;20.75;17.50;;;;;-4.26;81.24;100893.16;5000951;28;9718;-78
2022/01/12 06:31:14;;;;;;;;;14.00;12.25;;;;;-4.16;81.08;100888.06;5011035;28;9586;-78
2022/01/12 06:33:45;;;;;;;;;15.75;15.50;;;;;-4.26;81.29;100888.06;5033133;28;9722;-78
2022/01/12 06:36:18;;;;;;;;;15.25;14.50;;;;;-4.26;81.29;100885.50;5070677;28;9044;-79
2022/01/12 06:38:49;;;;;;;;;25.25;17.00;;;;;-4.18;80.51;100887.03;5053392;28;8864;-78
2022/01/12 06:41:20;;;;;;;;;7.50;6.00;;;;;-4.31;80.62;100895.34;5053883;28;10081;-76
2022/01/12 06:43:53;;;;;;;;;18.50;17.00;;;;;-4.38;79.24;100904.91;5069329;28;8846;-76
2022/01/12 06:46:26;;;;;;;;;27.75;24.00;;;;;-4.47;80.25;100888.91;5066849;28;9014;-77
2022/01/12 06:48:56;;;;;;;;;16.00;14.00;;;;;-4.41;80.68;100895.34;5058083;28;8865;-77
2022/01/12 06:51:25;;;;;;;;;20.00;18.75;;;;;-4.42;80.07;100901.22;5071576;28;8850;-79
2022/01/12 06:53:57;;;;;;;;;20.00;18.75;;;;;-4.39;80.74;100905.66;5071616;28;8965;-78
2022/01/12 06:56:26;;;;;;;;;12.25;12.00;;;;;-4.43;77.88;100914.72;5088476;28;8865;-77
2022/01/12 06:58:58;;;;;;;;;17.00;12.75;;;;;-4.42;77.81;100913.03;5069928;28;9860;-78
2022/01/12 07:01:28;;;;;;;;;22.75;18.50;;;;;-4.52;78.42;100917.41;5053375;28;8831;-78
2022/01/12 07:03:58;;;;;;;;;12.00;11.50;;;;;-4.58;77.69;100929.63;5052793;28;8974;-77
2022/01/12 07:06:27;;;;;;;;;16.50;15.00;;;;;-4.57;78.07;100916.13;5052933;28;8846;-77
2022/01/12 07:08:59;;;;;;;;;15.00;12.50;;;;;-4.58;77.92;100916.88;5069572;28;8988;-77
2022/01/12 07:11:42;;;;;;;;;18.50;15.75;;;;;-4.49;77.51;100920.97;5070060;28;8838;-78
2022/01/12 07:14:21;;;;;;;;;10.50;7.50;;;;;-4.58;77.25;100923.66;5069752;28;8865;-78
2022/01/12 07:16:50;;;;;;;;;14.00;13.50;;;;;-4.62;76.85;100932.69;5068744;28;9576;-80
2022/01/12 07:19:19;;;;;;;;;8.75;6.50;;;;;-4.60;76.44;100935.34;5053012;28;8855;-79
2022/01/12 07:21:49;;;;;;;;;13.50;12.00;;;;;-4.63;76.67;100943.66;5052977;28;8952;-78
2022/01/12 07:24:20;;;;;;;;;9.75;7.50;;;;;-4.64;76.79;100938.41;5052854;28;8835;-79
2022/01/12 07:26:48;;;;;;;;;17.50;13.75;;;;;-4.64;75.73;100941.84;4980423;28;8858;-80
2022/01/12 07:29:17;;;;;;;;;12.50;12.50;;;;;-4.81;75.76;100943.00;5012371;28;8936;-79
2022/01/12 07:31:48;;;;;;;;;17.50;17.50;;;;;-4.72;77.16;100948.84;5045772;28;8842;-78
2022/01/12 07:34:16;;;;;;;;;12.00;12.00;;;;;-4.69;76.39;100948.19;5025516;28;8838;-78
2022/01/12 07:36:45;;;;;;;;;26.75;22.75;;;;;-4.86;76.48;100956.09;5012606;28;8844;-77
2022/01/12 07:39:14;;;;;;;;;19.25;13.50;;;;;-4.87;75.40;100959.41;5027693;28;8857;-78
2022/01/12 07:41:44;;;;;;;;;16.00;15.00;;;;;-4.89;75.57;100964.38;4990009;28;8950;-78
2022/01/12 07:44:13;;;;;;;;;15.50;15.25;;;;;-4.73;76.77;100959.78;5038937;28;8885;-80
2022/01/12 07:46:42;;;;;;;;;17.00;15.00;;;;;-4.77;75.53;100960.28;5024801;28;8954;-78
2022/01/12 07:49:11;;;;;;;;;21.00;16.00;;;;;-4.74;76.43;100960.56;4987018;28;9013;-77
2022/01/12 07:51:40;;;;;;;;;17.00;15.00;;;;;-4.79;75.38;100961.81;5012964;28;8866;-79
2022/01/12 07:54:09;;;;;;;;;18.25;13.50;;;;;-4.77;74.98;100978.09;5029172;28;8880;-79
2022/01/12 07:56:38;;;;;;;;;14.50;14.00;;;;;-4.76;75.80;100982.44;5039359;28;9455;-79
2022/01/12 07:59:08;;;;;;;;;11.75;9.25;;;;;-4.71;75.31;100990.44;5068569;28;8879;-77
2022/01/12 08:01:37;;;;;;;;;22.75;17.00;;;;;-4.67;76.59;100994.13;5068699;28;8838;-78
2022/01/12 08:04:06;;;;;;;;;12.25;10.00;;;;;-4.74;74.97;100996.19;5068136;28;8854;-78
2022/01/12 08:06:35;;;;;;;;;12.00;12.00;;;;;-4.62;74.88;101000.50;5088855;28;9825;-78
2022/01/12 08:09:07;;;;;;;;;15.25;9.25;;;;;-4.73;75.05;101003.03;5088991;28;8851;-77
2022/01/12 08:11:35;;;;;;;;;14.00;12.75;;;;;-4.61;75.68;101008.28;5057270;28;8872;-80
2022/01/12 08:14:05;;;;;;;;;14.50;12.00;;;;;-4.61;75.85;101015.00;5068742;28;8860;-80
2022/01/12 08:16:35;;;;;;;;;15.50;14.00;;;;;-4.51;74.85;101007.38;5078542;28;8896;-79
2022/01/12 08:19:04;;;;;;;;;15.00;12.25;;;;;-4.58;74.65;101016.16;5069721;28;8895;-79
2022/01/12 08:21:33;;;;;;;;;15.50;9.75;;;;;-4.65;75.18;101016.44;5082994;28;8847;-79
2022/01/12 08:24:02;;;;;;;;;12.25;12.00;;;;;-4.85;74.73;101019.84;5082083;28;9083;-77
2022/01/12 08:26:39;;;;;;;;;16.00;14.50;;;;;-4.76;74.38;101033.34;5070642;28;8857;-79
2022/01/12 08:29:09;;;;;;;;;15.25;13.75;;;;;-4.77;74.63;101031.53;5065061;28;8846;-79
2022/01/12 08:31:40;;;;;;;;;15.50;13.00;;;;;-4.65;75.19;101034.25;5051663;28;8853;-79
2022/01/12 08:34:10;;;;;;;;;12.00;12.00;;;;;-4.72;74.93;101032.81;5086250;28;8866;-81
2022/01/12 08:36:40;;;;;;;;;12.75;12.75;;;;;-4.69;74.58;101034.72;5070265;28;8875;-80
2022/01/12 08:39:09;;;;;;;;;18.00;16.50;;;;;-4.78;74.64;101054.28;5068237;28;8867;-79
2022/01/12 08:41:39;;;;;;;;;11.50;10.00;;;;;-4.78;74.29;101052.66;5062839;28;8991;-80
2022/01/12 08:44:28;;;;;;;;;11.75;10.50;;;;;-4.64;73.23;101053.81;5031507;28;8843;-79
2022/01/12 08:46:59;;;;;;;;;10.50;10.50;;;;;-4.71;74.64;101051.53;5065014;28;9543;-78
2022/01/12 08:49:28;;;;;;;;;19.75;16.50;;;;;-4.75;73.42;101052.91;5048239;28;9458;-80
2022/01/12 08:51:57;;;;;;;;;3.75;3.75;;;;;-4.68;74.01;101061.09;4999827;28;8949;-80
2022/01/12 08:54:25;;;;;;;;;14.00;12.75;;;;;-4.66;74.76;101051.94;5047937;28;8848;-78
2022/01/12 08:56:54;;;;;;;;;14.50;12.75;;;;;-4.60;74.03;101050.78;5047565;28;8860;-79
2022/01/12 08:59:23;;;;;;;;;12.00;12.00;;;;;-4.77;74.28;101054.44;5043809;28;8844;-79
2022/01/12 09:01:52;;;;;;;;;12.50;11.25;;;;;-4.66;74.31;101057.00;5047877;28;8894;-80
2022/01/12 09:04:22;;;;;;;;;13.00;12.00;;;;;-4.67;74.07;101058.66;5047424;28;8965;-77
2022/01/12 09:06:52;;;;;;;;;28.75;17.00;;;;;-4.83;75.19;101064.09;5048010;28;8860;-79
2022/01/12 09:09:22;;;;;;;;;16.00;15.25;;;;;-4.67;75.70;101063.72;5048270;28;8883;-79
2022/01/12 09:11:50;;;;;;;;;17.00;15.00;;;;;-4.68;74.06;101069.59;5045151;28;8856;-79
2022/01/12 09:14:19;;;;;;;;;16.75;16.00;;;;;-4.83;73.47;101068.31;5069204;28;8852;-78
2022/01/12 09:16:54;;;;;;;;;15.75;14.00;;;;;-4.87;75.42;101073.91;5087967;28;8872;-79
2022/01/12 09:19:25;;;;;;;;;18.25;14.75;;;;;-4.76;75.17;101061.31;5073014;28;8855;-78
2022/01/12 09:21:54;;;;;;;;;18.00;16.00;;;;;-4.57;75.03;101061.22;5073285;28;8869;-79
2022/01/12 09:24:23;;;;;;;;;21.50;18.50;;;;;-4.49;74.64;101059.31;5073493;28;8908;-79
2022/01/12 09:26:52;;;;;;;;;12.50;11.00;;;;;-4.62;73.01;101066.69;5090411;28;8991;-80
2022/01/12 09:29:21;;;;;;;;;15.00;12.00;;;;;-4.77;73.27;101066.28;5022565;28;9673;-80
2022/01/12 09:31:50;;;;;;;;;16.25;14.25;;;;;-4.78;73.53;101073.03;5088530;28;8851;-78
2022/01/12 09:34:19;;;;;;;;;19.00;19.00;;;;;-4.75;73.53;101072.38;5085788;28;8884;-80
2022/01/12 09:36:49;;;;;;;;;11.25;11.25;;;;;-4.89;73.23;101073.75;5055441;28;8877;-80
2022/01/12 09:39:18;;;;;;;;;18.00;16.25;;;;;-4.89;73.03;101066.13;5072283;28;8983;-80
2022/01/12 09:41:47;;;;;;;;;14.00;12.75;;;;;-4.79;74.40;101068.69;5089510;28;8881;-81
2022/01/12 09:44:17;;;;;;;;;24.50;19.00;;;;;-4.71;73.07;101072.78;5058921;28;8885;-79
2022/01/12 09:46:46;;;;;;;;;15.25;13.25;;;;;-4.67;72.51;101071.38;5085650;28;8925;-79
2022/01/12 09:49:15;;;;;;;;;22.75;19.00;;;;;-4.71;73.41;101070.25;5089569;28;8852;-75
2022/01/12 09:51:44;;;;;;;;;24.50;23.00;;;;;-4.59;73.43;101065.28;5022700;28;9620;-74
2022/01/12 09:54:14;;;;;;;;;26.50;24.00;;;;;-4.70;72.28;101079.66;5072660;28;8872;-73
2022/01/12 09:56:42;;;;;;;;;25.25;18.00;;;;;-4.79;73.60;101081.41;5087515;28;8868;-72
2022/01/12 09:59:12;;;;;;;;;20.25;18.75;;;;;-4.74;72.51;101090.34;5021380;28;8937;-73
2022/01/12 10:01:45;;;;;;;;;19.75;18.00;;;;;-4.54;73.22;101079.31;5088673;28;8823;-73
2022/01/12 10:04:16;;;;;;;;;28.00;23.00;;;;;-4.59;73.27;101089.88;5088875;28;8843;-75
2022/01/12 10:06:47;;;;;;;;;15.25;13.00;;;;;-4.43;72.49;101081.84;5071396;28;8935;-74
2022/01/12 10:09:22;;;;;;;;;22.75;19.25;;;;;-4.45;72.96;101086.81;5071538;28;8855;-75
2022/01/12 10:11:52;;;;;;;;;24.00;19.75;;;;;-4.45;71.90;101089.34;5072057;28;8867;-73
2022/01/12 10:14:23;;;;;;;;;30.50;24.50;;;;;-4.46;71.76;101085.03;5088861;28;8835;-74
2022/01/12 10:16:53;;;;;;;;;19.75;16.50;;;;;-4.43;72.52;101081.84;5090194;28;8875;-74
2022/01/12 10:19:27;;;;;;;;;24.00;20.00;;;;;-4.54;71.39;101084.41;5088499;28;8859;-74
2022/01/12 10:21:56;;;;;;;;;17.00;15.75;;;;;-4.51;71.25;101087.19;5072098;28;8847;-73
2022/01/12 10:24:28;;;;;;;;;24.75;20.00;;;;;-4.35;72.29;101084.28;5085220;28;9686;-73
2022/01/12 10:26:58;;;;;;;;;26.00;21.75;;;;;-4.20;72.11;101079.56;5093330;28;8865;-72
2022/01/12 10:29:28;;;;;;;;;22.25;21.25;;;;;-3.97;72.26;101076.38;5071352;28;8865;-72
2022/01/12 10:31:59;;;;;;;;;24.00;21.00;;;;;-4.02;70.95;101084.41;5086997;28;8856;-72
2022/01/12 10:34:30;;;;;;;;;27.50;19.00;;;;;-4.24;72.50;101082.63;5053079;28;8857;-74
2022/01/12 10:36:59;;;;;;;;;29.50;27.25;;;;;-4.22;72.88;101083.63;5089459;28;8915;-75
2022/01/12 10:39:29;;;;;;;;;14.25;13.00;;;;;-4.28;71.72;101093.31;5087212;28;8978;-73
2022/01/12 10:42:01;;;;;;;;;33.50;21.50;;;;;-4.32;71.77;101086.19;5083277;28;8932;-73
2022/01/12 10:44:32;;;;;;;;;36.00;30.00;;;;;-4.29;71.71;101095.72;5087592;28;9073;-72
2022/01/12 10:47:09;;;;;;;;;9.50;9.00;;;;;-4.15;72.92;101085.03;5087601;28;9607;-73
2022/01/12 10:49:39;;;;;;;;;26.50;18.75;;;;;-4.21;73.68;101085.44;5087125;28;8833;-75
2022/01/12 10:52:10;;;;;;;;;33.75;30.75;;;;;-4.11;72.31;101093.06;5088301;28;8904;-71
2022/01/12 10:54:47;;;;;;;;;27.75;24.25;;;;;-4.10;72.34;101096.50;5037853;28;8869;-72
2022/01/12 10:57:22;;;;;;;;;31.75;26.50;;;;;-3.94;72.43;101081.69;5071703;28;8873;-73
2022/01/12 11:00:18;;;;;;;;;27.00;25.50;;;;;-3.75;71.74;101078.13;5087989;28;8856;-75
2022/01/12 11:02:48;;;;;;;;;28.25;25.50;;;;;-3.84;70.78;101078.25;5071336;28;8946;-75
2022/01/12 11:05:21;;;;;;;;;31.00;28.25;;;;;-4.02;71.38;101090.38;5088845;28;8903;-73
2022/01/12 11:07:50;;;;;;;;;29.75;29.75;;;;;-4.02;71.10;101094.59;5088030;28;8875;-74
2022/01/12 11:10:21;;;;;;;;;22.00;20.50;;;;;-4.11;71.45;101093.06;5087627;28;8869;-74
2022/01/12 11:12:51;;;;;;;;;35.25;26.75;;;;;-4.06;71.88;101102.72;5087201;28;8833;-74
2022/01/12 11:15:22;;;;;;;;;27.75;24.25;;;;;-4.07;70.54;101086.56;5036253;28;8985;-73
2022/01/12 11:17:54;;;;;;;;;17.50;13.50;;;;;-3.99;71.49;101087.19;5070234;28;9599;-75
2022/01/12 11:20:27;;;;;;;;;34.00;30.25;;;;;-3.92;71.72;101081.84;5067789;28;8873;-72
2022/01/12 11:23:00;;;;;;;;;16.00;12.75;;;;;-3.87;71.67;101084.78;5086456;28;8872;-72
2022/01/12 11:25:32;;;;;;;;;39.25;36.75;;;;;-3.84;71.85;101095.19;5086893;28;8964;-75
2022/01/12 11:28:06;;;;;;;;;38.75;28.00;;;;;-3.79;70.81;101093.94;5053244;28;8852;-72
2022/01/12 11:30:35;;;;;;;;;33.75;29.75;;;;;-3.75;71.63;101090.84;5069711;28;8981;-71
2022/01/12 11:33:06;;;;;;;;;35.75;31.25;;;;;-3.84;72.35;101095.19;5069124;28;8892;-72
2022/01/12 11:35:39;;;;;;;;;30.00;28.75;;;;;-3.89;71.64;101094.84;5086866;28;8968;-72
2022/01/12 11:38:08;;;;;;;;;24.25;21.50;;;;;-3.89;71.41;101088.81;5069545;28;8868;-73
2022/01/12 11:40:40;;;;;;;;;30.25;26.25;;;;;-3.87;71.56;101098.41;5088541;28;8860;-72
2022/01/12 11:43:21;;;;;;;;;23.00;22.00;;;;;-3.97;70.46;101091.66;5087123;28;8869;-72
2022/01/12 11:46:02;;;;;;;;;36.50;30.50;;;;;-3.95;70.19;101095.22;5088567;28;8873;-72
2022/01/12 11:48:33;;;;;;;;;31.00;29.50;;;;;-3.81;70.39;101085.28;5068919;28;8849;-72
2022/01/12 11:51:03;;;;;;;;;25.25;23.50;;;;;-3.65;69.67;101085.72;5035778;28;8966;-72
2022/01/12 11:53:32;;;;;;;;;37.75;31.00;;;;;-3.66;70.74;101103.47;5087665;28;8836;-73
2022/01/12 11:56:22;;;;;;;;;30.00;24.25;;;;;-3.70;69.20;101092.13;5083685;28;8964;-74
2022/01/12 11:58:57;;;;;;;;;29.25;27.50;;;;;-3.55;70.27;101089.94;5084107;28;8875;-73
2022/01/12 12:01:37;;;;;;;;;30.00;26.00;;;;;-3.43;70.47;101090.91;5087460;28;8894;-72
2022/01/12 12:04:08;;;;;;;;;30.75;27.50;;;;;-3.39;69.82;101090.38;5069994;28;8850;-72
2022/01/12 12:06:37;;;;;;;;;29.00;25.25;;;;;-3.60;68.94;101104.84;5087143;28;8867;-72
2022/01/12 12:09:09;;;;;;;;;22.75;18.25;;;;;-3.62;70.09;101098.72;5085883;28;8882;-73
2022/01/12 12:11:40;;;;;;;;;29.00;26.50;;;;;-3.57;70.89;101099.13;5086068;28;8847;-72
2022/01/12 12:14:09;;;;;;;;;26.75;21.25;;;;;-3.40;70.25;101097.94;5082414;28;8870;-74
2022/01/12 12:16:38;;;;;;;;;35.00;31.50;;;;;-3.31;70.92;101097.75;5079072;28;8890;-72
2022/01/12 12:19:07;;;;;;;;;27.00;20.25;;;;;-3.48;69.80;101099.84;5083803;28;8849;-72
2022/01/12 12:21:37;;;;;;;;;28.00;25.50;;;;;-3.36;69.21;101092.31;5087361;28;8863;-73
2022/01/12 12:24:11;;;;;;;;;31.50;27.00;;;;;-3.26;69.26;101101.56;5085196;28;8888;-72
2022/01/12 12:26:46;;;;;;;;;35.25;30.25;;;;;-3.31;69.95;101097.75;5088120;28;8912;-73
2022/01/12 12:29:17;;;;;;;;;29.50;26.25;;;;;-3.22;70.60;101094.28;5085874;28;8891;-72
2022/01/12 12:31:49;;;;;;;;;36.50;29.00;;;;;-3.17;70.63;101095.53;5084333;28;8855;-74
2022/01/12 12:34:29;;;;;;;;;30.00;26.50;;;;;-3.00;69.54;101099.41;5051674;28;8872;-73
2022/01/12 12:37:00;;;;;;;;;34.50;27.50;;;;;-2.94;70.20;101104.13;5085578;28;8861;-73